createdAt,value
2018-07-30T00:00:44.618Z,14.17
2018-07-30T00:03:15.976Z,13.30
2018-07-30T00:05:47.242Z,14.13
2018-07-30T00:08:17.963Z,14.07
2018-07-30T00:10:48.900Z,14.17
2018-07-30T00:13:19.657Z,14.60
2018-07-30T00:15:50.626Z,14.50
2018-07-30T00:18:21.537Z,13.97
2018-07-30T00:20:52.528Z,14.47
2018-07-30T00:23:24.532Z,13.73
2018-07-30T00:25:54.683Z,14.50
2018-07-30T00:28:25.256Z,14.90
2018-07-30T00:30:55.914Z,13.63
2018-07-30T00:33:26.393Z,13.87
2018-07-30T00:35:57.592Z,14.43
2018-07-30T00:38:28.971Z,14.57
2018-07-30T00:40:59.709Z,14.87
2018-07-30T00:43:30.724Z,14.60
2018-07-30T00:46:01.235Z,15.10
2018-07-30T00:48:31.919Z,14.77
2018-07-30T00:51:02.504Z,14.50
2018-07-30T00:53:33.159Z,16.13
2018-07-30T00:56:04.554Z,14.80
2018-07-30T00:58:35.918Z,14.80
2018-07-30T01:01:06.571Z,15.13
2018-07-30T01:03:37.857Z,15.27
2018-07-30T01:06:08.812Z,15.67
2018-07-30T01:08:39.085Z,15.10
2018-07-30T01:11:09.672Z,15.23
2018-07-30T01:13:40.868Z,16.53
2018-07-30T01:16:11.970Z,15.80
2018-07-30T01:18:42.496Z,15.03
2018-07-30T01:21:13.060Z,15.57
2018-07-30T01:23:43.668Z,15.60
2018-07-30T01:26:19.536Z,14.87
2018-07-30T01:28:51.131Z,15.57
2018-07-30T01:31:21.621Z,16.27
2018-07-30T01:33:52.312Z,15.17
2018-07-30T01:36:22.764Z,16.40
2018-07-30T01:38:53.260Z,15.73
2018-07-30T01:41:23.806Z,15.63
2018-07-30T01:43:54.319Z,16.83
2018-07-30T01:46:24.529Z,17.10
2018-07-30T01:48:56.020Z,17.30
2018-07-30T01:51:26.496Z,16.67
2018-07-30T01:53:57.167Z,16.50
2018-07-30T01:56:27.780Z,16.50
2018-07-30T01:58:58.264Z,16.63
2018-07-30T02:01:28.986Z,15.93
2018-07-30T02:04:00.485Z,16.57
2018-07-30T02:06:31.047Z,16.20
2018-07-30T02:09:01.559Z,15.90
2018-07-30T02:11:32.032Z,15.83
2018-07-30T02:14:02.611Z,15.77
2018-07-30T02:16:33.698Z,16.37
2018-07-30T02:19:04.552Z,17.50
2018-07-30T02:21:35.202Z,16.67
2018-07-30T02:24:05.819Z,16.20
2018-07-30T02:26:36.425Z,16.93
2018-07-30T02:29:07.013Z,16.33
2018-07-30T02:31:37.621Z,17.23
2018-07-30T02:34:09.829Z,16.90
2018-07-30T02:36:40.359Z,15.93
2018-07-30T02:39:14.212Z,16.57
2018-07-30T02:41:44.775Z,17.13
2018-07-30T02:44:15.895Z,16.60
2018-07-30T02:46:47.165Z,15.30
2018-07-30T02:49:17.748Z,16.20
2018-07-30T02:51:48.341Z,16.87
2018-07-30T02:54:19.023Z,16.10
2018-07-30T02:56:49.496Z,17.03
2018-07-30T02:59:19.951Z,17.20
2018-07-30T03:01:50.566Z,17.13
2018-07-30T03:04:21.014Z,17.13
2018-07-30T03:06:51.615Z,17.30
2018-07-30T03:09:22.204Z,16.63
2018-07-30T03:11:53.180Z,18.03
2018-07-30T03:14:24.318Z,17.00
2018-07-30T03:16:54.841Z,18.03
2018-07-30T03:19:25.309Z,17.60
2018-07-30T03:21:55.869Z,17.07
2018-07-30T03:24:26.508Z,17.63
2018-07-30T03:26:56.928Z,17.33
2018-07-30T03:29:27.401Z,17.77
2018-07-30T03:31:57.848Z,16.17
2018-07-30T03:34:29.791Z,16.90
2018-07-30T03:37:00.395Z,17.07
2018-07-30T03:39:31.047Z,16.67
2018-07-30T03:42:01.523Z,17.17
2018-07-30T03:44:32.154Z,17.77
2018-07-30T03:47:02.754Z,17.67
2018-07-30T03:49:33.453Z,17.23
2018-07-30T03:52:04.284Z,18.67
2018-07-30T03:54:34.463Z,18.70
2018-07-30T03:57:05.191Z,18.60
2018-07-30T03:59:36.050Z,19.23
2018-07-30T04:02:06.171Z,18.47
2018-07-30T04:04:36.829Z,17.67
2018-07-30T04:07:07.435Z,17.70
2018-07-30T04:09:38.125Z,18.70
2018-07-30T04:12:09.621Z,18.90
2018-07-30T04:14:40.159Z,17.87
2018-07-30T04:17:10.248Z,18.73
2018-07-30T04:19:40.811Z,18.10
2018-07-30T04:22:11.500Z,18.70
2018-07-30T04:24:41.433Z,18.07
2018-07-30T04:27:12.096Z,18.83
2018-07-30T04:29:42.631Z,17.60
2018-07-30T04:32:12.883Z,17.93
2018-07-30T04:34:43.504Z,19.73
2018-07-30T04:37:15.080Z,19.07
2018-07-30T04:39:45.582Z,18.27
2018-07-30T04:42:16.174Z,17.53
2018-07-30T04:44:46.964Z,18.37
2018-07-30T04:47:17.553Z,18.07
2018-07-30T04:49:48.070Z,17.17
2018-07-30T04:52:18.470Z,17.77
2018-07-30T04:54:49.009Z,18.33
2018-07-30T04:57:19.816Z,18.30
2018-07-30T04:59:50.957Z,17.77
2018-07-30T05:02:21.512Z,18.17
2018-07-30T05:04:52.035Z,18.83
2018-07-30T05:07:22.731Z,17.97
2018-07-30T05:09:53.761Z,17.33
2018-07-30T05:12:24.262Z,16.93
2018-07-30T05:14:54.785Z,16.53
2018-07-30T05:17:25.391Z,17.47
2018-07-30T05:19:56.028Z,17.97
2018-07-30T05:22:26.954Z,17.60
2018-07-30T05:24:57.471Z,18.30
2018-07-30T05:27:28.229Z,17.23
2018-07-30T05:29:58.885Z,17.70
2018-07-30T05:32:29.624Z,19.70
2018-07-30T05:35:00.155Z,17.33
2018-07-30T05:37:32.104Z,18.03
2018-07-30T05:40:02.951Z,17.50
2018-07-30T05:42:33.647Z,16.83
2018-07-30T05:45:04.309Z,17.63
2018-07-30T05:47:34.836Z,16.57
2018-07-30T05:50:06.017Z,16.60
2018-07-30T05:52:36.959Z,15.57
2018-07-30T05:55:07.728Z,15.80
2018-07-30T05:57:38.365Z,15.57
2018-07-30T06:00:09.399Z,15.77
2018-07-30T06:02:40.340Z,14.53
2018-07-30T06:05:11.489Z,15.27
2018-07-30T06:07:42.472Z,14.27
2018-07-30T06:10:14.095Z,14.23
2018-07-30T06:12:45.593Z,13.50
2018-07-30T06:15:18.187Z,13.43
2018-07-30T06:17:49.937Z,12.87
2018-07-30T06:20:20.770Z,13.20
2018-07-30T06:22:51.545Z,12.23
2018-07-30T06:25:23.256Z,12.97
2018-07-30T06:27:55.955Z,12.90
2018-07-30T06:30:26.998Z,13.00
2018-07-30T06:32:57.664Z,12.60
2018-07-30T06:35:28.491Z,13.17
2018-07-30T06:37:59.178Z,13.83
2018-07-30T06:40:29.964Z,12.87
2018-07-30T06:43:00.440Z,11.90
2018-07-30T06:45:31.280Z,11.23
2018-07-30T06:48:01.900Z,13.13
2018-07-30T06:50:33.573Z,11.83
2018-07-30T06:53:04.258Z,11.20
2018-07-30T06:55:34.902Z,10.53
2018-07-30T06:58:05.931Z,10.63
2018-07-30T07:00:37.212Z,11.20
2018-07-30T07:03:09.075Z,10.27
2018-07-30T07:05:39.822Z,10.27
2018-07-30T07:08:10.805Z,10.33
2018-07-30T07:10:41.603Z,11.07
2018-07-30T07:13:12.637Z,10.67
2018-07-30T07:15:43.712Z,10.83
2018-07-30T07:18:14.578Z,10.60
2018-07-30T07:20:46.540Z,10.77
2018-07-30T07:23:18.029Z,10.03
2018-07-30T07:25:48.942Z,10.00
2018-07-30T07:28:21.292Z,9.93
2018-07-30T07:30:52.059Z,10.67
2018-07-30T07:33:22.772Z,10.43
2018-07-30T07:35:54.510Z,10.67
2018-07-30T07:38:25.921Z,10.27
2018-07-30T07:40:57.993Z,10.10
2018-07-30T07:43:29.349Z,9.07
2018-07-30T07:46:01.120Z,9.60
2018-07-30T07:48:32.377Z,10.10
2018-07-30T07:51:05.137Z,9.73
2018-07-30T07:53:38.038Z,9.37
2018-07-30T07:56:09.235Z,9.53
2018-07-30T07:58:40.452Z,9.00
2018-07-30T08:01:10.834Z,8.10
2018-07-30T08:03:42.736Z,7.50
2018-07-30T08:06:14.733Z,8.20
2018-07-30T08:08:45.919Z,7.40
2018-07-30T08:11:16.849Z,7.87
2018-07-30T08:13:48.072Z,6.90
2018-07-30T08:16:20.017Z,6.40
2018-07-30T08:18:50.673Z,7.10
2018-07-30T08:21:21.685Z,7.73
2018-07-30T08:23:53.141Z,7.30
2018-07-30T08:26:25.211Z,6.73
2018-07-30T08:28:57.548Z,6.93
2018-07-30T08:31:29.527Z,6.90
2018-07-30T08:34:00.617Z,6.53
2018-07-30T08:36:31.831Z,6.30
2018-07-30T08:39:03.343Z,6.62
2018-07-30T08:41:34.094Z,6.67
2018-07-30T08:44:05.311Z,6.53
2018-07-30T08:46:36.009Z,6.75
2018-07-30T08:49:07.264Z,6.40
2018-07-30T08:51:39.011Z,6.17
2018-07-30T08:54:10.130Z,6.67
2018-07-30T08:56:40.731Z,6.60
2018-07-30T08:59:11.575Z,7.20
2018-07-30T09:01:44.799Z,6.58
2018-07-30T09:04:15.924Z,6.87
2018-07-30T09:06:54.854Z,6.95
2018-07-30T09:09:29.093Z,6.40
2018-07-30T09:12:01.221Z,6.50
2018-07-30T09:14:32.270Z,6.50
2018-07-30T09:17:04.890Z,6.12
2018-07-30T09:19:36.935Z,6.55
2018-07-30T09:22:09.031Z,6.58
2018-07-30T09:24:40.534Z,6.97
2018-07-30T09:27:12.301Z,6.22
2018-07-30T09:29:43.378Z,6.35
2018-07-30T09:32:14.906Z,6.03
2018-07-30T09:34:45.553Z,5.50
2018-07-30T09:37:16.923Z,5.05
2018-07-30T09:39:48.228Z,5.67
2018-07-30T09:42:19.970Z,5.70
2018-07-30T09:44:51.422Z,7.00
2018-07-30T09:47:22.797Z,6.10
2018-07-30T09:49:53.421Z,5.47
2018-07-30T09:52:24.126Z,5.62
2018-07-30T09:54:55.378Z,5.42
2018-07-30T09:57:26.185Z,5.03
2018-07-30T09:59:56.956Z,5.80
2018-07-30T10:02:30.198Z,6.35
2018-07-30T10:05:01.033Z,6.00
2018-07-30T10:07:32.139Z,5.80
2018-07-30T10:10:02.775Z,5.80
2018-07-30T10:12:33.729Z,5.20
2018-07-30T10:15:04.737Z,5.10
2018-07-30T10:17:38.407Z,5.10
2018-07-30T10:20:10.446Z,5.20
2018-07-30T10:22:41.784Z,5.12
2018-07-30T10:25:13.179Z,6.20
2018-07-30T10:27:44.857Z,5.92
2018-07-30T10:30:15.658Z,5.90
2018-07-30T10:32:46.706Z,5.80
2018-07-30T10:35:18.401Z,5.90
2018-07-30T10:37:49.726Z,5.67
2018-07-30T10:40:20.451Z,5.45
2018-07-30T10:42:51.499Z,5.35
2018-07-30T10:45:22.179Z,5.55
2018-07-30T10:47:53.036Z,5.70
2018-07-30T10:50:23.881Z,5.35
2018-07-30T10:52:55.152Z,5.25
2018-07-30T10:55:27.132Z,4.72
2018-07-30T10:57:58.482Z,4.87
2018-07-30T11:00:28.893Z,4.62
2018-07-30T11:02:59.709Z,5.08
2018-07-30T11:05:35.000Z,4.37
2018-07-30T11:08:05.880Z,8.78
2018-07-30T11:10:36.800Z,4.53
2018-07-30T11:13:08.965Z,5.10
2018-07-30T11:15:39.691Z,5.15
2018-07-30T11:18:10.097Z,4.80
2018-07-30T11:20:40.717Z,4.60
2018-07-30T11:23:11.955Z,4.25
2018-07-30T11:25:42.356Z,4.47
2018-07-30T11:28:13.577Z,4.33
2018-07-30T11:30:45.694Z,4.58
2018-07-30T11:33:16.849Z,5.28
2018-07-30T11:35:47.569Z,4.65
2018-07-30T11:38:18.876Z,5.17
2018-07-30T11:40:50.544Z,5.17
2018-07-30T11:43:21.217Z,4.90
2018-07-30T11:45:52.359Z,4.87
2018-07-30T11:48:23.884Z,5.08
2018-07-30T11:50:55.942Z,5.12
2018-07-30T11:53:26.881Z,5.17
2018-07-30T11:55:58.451Z,7.58
2018-07-30T11:58:29.784Z,5.05
2018-07-30T12:01:01.433Z,4.58
2018-07-30T12:03:32.294Z,4.75
2018-07-30T12:06:03.174Z,4.95
2018-07-30T12:08:34.830Z,4.85
2018-07-30T12:11:05.804Z,4.58
2018-07-30T12:13:36.701Z,4.75
2018-07-30T12:16:08.496Z,5.00
2018-07-30T12:18:39.358Z,5.05
2018-07-30T12:21:10.257Z,5.10
2018-07-30T12:23:41.082Z,4.58
2018-07-30T12:26:12.920Z,4.50
2018-07-30T12:28:44.230Z,4.45
2018-07-30T12:31:19.101Z,4.58
2018-07-30T12:33:49.993Z,4.40
2018-07-30T12:36:20.924Z,4.80
2018-07-30T12:38:51.788Z,4.60
2018-07-30T12:41:23.009Z,4.60
2018-07-30T12:43:56.824Z,4.50
2018-07-30T12:46:28.843Z,4.62
2018-07-30T12:49:00.478Z,4.97
2018-07-30T12:51:32.836Z,4.53
2018-07-30T12:54:05.418Z,5.10
2018-07-30T12:56:36.802Z,4.83
2018-07-30T12:59:09.526Z,4.97
2018-07-30T13:01:41.636Z,4.87
2018-07-30T13:04:13.074Z,4.40
2018-07-30T13:06:45.823Z,4.97
2018-07-30T13:09:16.824Z,4.47
2018-07-30T13:11:47.853Z,4.67
2018-07-30T13:14:18.702Z,4.83
2018-07-30T13:16:50.332Z,4.65
2018-07-30T13:19:26.498Z,4.78
2018-07-30T13:21:59.379Z,5.10
2018-07-30T13:24:30.949Z,5.90
2018-07-30T13:27:01.994Z,4.80
2018-07-30T13:29:33.708Z,4.87
2018-07-30T13:32:07.247Z,5.05
2018-07-30T13:34:38.117Z,5.05
2018-07-30T13:37:09.765Z,4.90
2018-07-30T13:39:42.492Z,5.08
2018-07-30T13:42:13.415Z,4.80
2018-07-30T13:44:44.829Z,5.10
2018-07-30T13:47:16.030Z,5.60
2018-07-30T13:49:47.964Z,5.10
2018-07-30T13:52:18.800Z,5.25
2018-07-30T13:54:49.690Z,5.12
2018-07-30T13:57:20.304Z,4.67
2018-07-30T13:59:51.410Z,5.67
2018-07-30T14:02:22.329Z,5.55
2018-07-30T14:04:52.989Z,5.40
2018-07-30T14:07:25.018Z,5.10
2018-07-30T14:09:56.571Z,4.95
2018-07-30T14:12:28.201Z,5.28
2018-07-30T14:14:59.109Z,5.28
2018-07-30T14:17:30.232Z,5.30
2018-07-30T14:20:00.968Z,5.40
2018-07-30T14:22:32.598Z,5.20
2018-07-30T14:25:03.682Z,4.92
2018-07-30T14:27:36.313Z,4.95
2018-07-30T14:30:09.481Z,5.00
2018-07-30T14:32:40.790Z,5.50
2018-07-30T14:35:13.465Z,5.37
2018-07-30T14:37:46.067Z,5.22
2018-07-30T14:40:18.090Z,5.80
2018-07-30T14:42:50.916Z,5.42
2018-07-30T14:45:25.586Z,5.22
2018-07-30T14:47:56.247Z,5.60
2018-07-30T14:50:27.038Z,5.10
2018-07-30T14:52:57.843Z,5.70
2018-07-30T14:55:28.909Z,5.37
2018-07-30T14:58:00.588Z,4.85
2018-07-30T15:00:31.380Z,6.55
2018-07-30T15:03:02.323Z,5.30
2018-07-30T15:05:33.197Z,5.15
2018-07-30T15:08:04.707Z,6.30
2018-07-30T15:10:35.579Z,5.60
2018-07-30T15:13:06.256Z,4.87
2018-07-30T15:15:37.597Z,4.97
2018-07-30T15:18:08.848Z,5.22
2018-07-30T15:20:40.225Z,5.00
2018-07-30T15:23:12.596Z,4.60
2018-07-30T15:25:43.306Z,5.12
2018-07-30T15:28:13.926Z,4.70
2018-07-30T15:30:44.766Z,5.25
2018-07-30T15:33:16.263Z,4.78
2018-07-30T15:35:48.766Z,5.17
2018-07-30T15:38:19.734Z,4.65
2018-07-30T15:40:50.544Z,5.28
2018-07-30T15:43:21.128Z,4.80
2018-07-30T15:45:51.811Z,5.28
2018-07-30T15:48:23.256Z,5.20
2018-07-30T15:50:53.870Z,5.12
2018-07-30T15:53:25.492Z,4.75
2018-07-30T15:55:57.288Z,4.70
2018-07-30T15:58:28.302Z,4.72
2018-07-30T16:00:58.976Z,4.53
2018-07-30T16:03:29.987Z,4.90
2018-07-30T16:06:00.710Z,4.97
2018-07-30T16:08:31.894Z,4.75
2018-07-30T16:11:03.742Z,4.85
2018-07-30T16:13:35.837Z,5.70
2018-07-30T16:16:06.633Z,5.23
2018-07-30T16:18:37.850Z,5.23
2018-07-30T16:21:09.396Z,5.63
2018-07-30T16:23:40.357Z,5.47
2018-07-30T16:26:16.216Z,5.40
2018-07-30T16:28:48.384Z,5.30
2018-07-30T16:31:19.485Z,5.33
2018-07-30T16:33:50.342Z,5.37
2018-07-30T16:36:21.556Z,5.60
2018-07-30T16:38:52.490Z,5.30
2018-07-30T16:41:24.034Z,5.13
2018-07-30T16:43:54.847Z,5.33
2018-07-30T16:46:26.466Z,5.23
2018-07-30T16:48:58.540Z,4.80
2018-07-30T16:51:29.914Z,5.20
2018-07-30T16:54:01.285Z,5.30
2018-07-30T16:56:35.220Z,5.20
2018-07-30T16:59:12.053Z,5.40
2018-07-30T17:01:44.256Z,5.30
2018-07-30T17:04:16.781Z,5.80
2018-07-30T17:06:49.573Z,5.40
2018-07-30T17:09:21.010Z,6.20
2018-07-30T17:11:52.186Z,5.50
2018-07-30T17:14:22.957Z,5.93
2018-07-30T17:16:53.898Z,5.27
2018-07-30T17:19:25.582Z,5.80
2018-07-30T17:21:56.685Z,5.87
2018-07-30T17:24:27.983Z,6.90
2018-07-30T17:26:58.837Z,6.50
2018-07-30T17:29:29.832Z,5.43
2018-07-30T17:32:00.638Z,5.77
2018-07-30T17:34:31.523Z,6.20
2018-07-30T17:37:03.114Z,6.23
2018-07-30T17:39:35.059Z,5.40
2018-07-30T17:42:06.525Z,6.70
2018-07-30T17:44:37.368Z,6.00
2018-07-30T17:47:08.370Z,5.83
2018-07-30T17:49:39.163Z,5.97
2018-07-30T17:52:09.905Z,5.80
2018-07-30T17:54:41.629Z,5.80
2018-07-30T17:57:13.429Z,5.83
2018-07-30T17:59:44.432Z,6.40
2018-07-30T18:02:15.424Z,6.27
2018-07-30T18:04:46.085Z,5.80
2018-07-30T18:07:16.951Z,5.70
2018-07-30T18:09:47.654Z,5.73
2018-07-30T18:12:18.533Z,6.70
2018-07-30T18:14:50.639Z,5.93
2018-07-30T18:17:22.043Z,5.60
2018-07-30T18:19:52.988Z,5.57
2018-07-30T18:22:23.774Z,5.70
2018-07-30T18:24:55.312Z,5.47
2018-07-30T18:27:26.874Z,6.10
2018-07-30T18:29:57.678Z,5.40
2018-07-30T18:32:30.691Z,6.00
2018-07-30T18:35:01.729Z,5.10
2018-07-30T18:37:34.478Z,5.63
2018-07-30T18:40:05.991Z,5.70
2018-07-30T18:42:36.999Z,5.50
2018-07-30T18:45:09.581Z,6.30
2018-07-30T18:47:41.804Z,6.27
2018-07-30T18:50:15.895Z,7.27
2018-07-30T18:52:47.946Z,6.40
2018-07-30T18:55:21.781Z,6.00
2018-07-30T18:58:02.042Z,7.33
2018-07-30T19:00:37.092Z,6.43
2018-07-30T19:03:13.662Z,6.33
2018-07-30T19:05:52.132Z,6.20
2018-07-30T19:08:25.060Z,6.50
2018-07-30T19:10:59.944Z,6.67
2018-07-30T19:13:30.765Z,6.70
2018-07-30T19:16:03.410Z,6.50
2018-07-30T19:18:35.312Z,6.83
2018-07-30T19:21:07.265Z,7.50
2018-07-30T19:23:44.764Z,6.10
2018-07-30T19:26:16.669Z,6.53
2018-07-30T19:28:52.479Z,6.47
2018-07-30T19:31:24.256Z,14.27
2018-07-30T19:33:56.319Z,6.50
2018-07-30T19:36:29.199Z,6.70
2018-07-30T19:39:01.156Z,6.20
2018-07-30T19:41:31.768Z,5.93
2018-07-30T19:44:02.867Z,6.00
2018-07-30T19:46:33.730Z,6.37
2018-07-30T19:49:06.582Z,5.70
2018-07-30T19:51:38.242Z,12.90
2018-07-30T19:54:12.566Z,10.23
2018-07-30T19:56:45.303Z,9.50
2018-07-30T19:59:17.847Z,9.87
2018-07-30T20:01:51.989Z,10.70
2018-07-30T20:04:23.738Z,9.83
2018-07-30T20:06:57.141Z,9.63
2018-07-30T20:09:28.824Z,6.80
2018-07-30T20:12:00.844Z,7.07
2018-07-30T20:14:32.634Z,6.50
2018-07-30T20:17:04.349Z,6.80
2018-07-30T20:19:37.317Z,6.13
2018-07-30T20:22:11.103Z,8.10
2018-07-30T20:24:42.422Z,7.13
2018-07-30T20:27:13.987Z,6.43
2018-07-30T20:29:46.874Z,6.43
2018-07-30T20:32:18.682Z,6.80
2018-07-30T20:34:50.393Z,6.60
2018-07-30T20:37:22.532Z,7.33
2018-07-30T20:39:54.221Z,9.00
2018-07-30T20:42:25.792Z,11.50
2018-07-30T20:44:56.680Z,12.33
2018-07-30T20:47:27.879Z,7.23
2018-07-30T20:49:59.920Z,6.57
2018-07-30T20:52:36.221Z,6.20
2018-07-30T20:55:09.352Z,6.70
2018-07-30T20:57:41.374Z,6.53
2018-07-30T21:00:12.075Z,7.17
2018-07-30T21:02:43.073Z,7.67
2018-07-30T21:05:15.125Z,7.90
2018-07-30T21:07:47.514Z,7.63
2018-07-30T21:10:19.337Z,6.70
2018-07-30T21:12:50.216Z,7.00
2018-07-30T21:15:20.937Z,6.50
2018-07-30T21:17:52.056Z,5.90
2018-07-30T21:20:22.909Z,5.47
2018-07-30T21:22:53.661Z,5.87
2018-07-30T21:25:24.500Z,5.90
2018-07-30T21:27:57.076Z,5.73
2018-07-30T21:30:27.890Z,5.90
2018-07-30T21:32:58.544Z,5.90
2018-07-30T21:35:29.802Z,6.33
2018-07-30T21:38:00.633Z,6.23
2018-07-30T21:40:31.520Z,6.60
2018-07-30T21:43:02.460Z,6.43
2018-07-30T21:45:34.029Z,6.50
2018-07-30T21:48:05.288Z,7.20
2018-07-30T21:50:36.295Z,6.50
2018-07-30T21:53:07.292Z,6.53
2018-07-30T21:55:38.213Z,7.10
2018-07-30T21:58:09.049Z,7.00
2018-07-30T22:00:39.842Z,7.07
2018-07-30T22:03:11.309Z,6.40
2018-07-30T22:05:43.668Z,7.00
2018-07-30T22:08:14.257Z,6.77
2018-07-30T22:10:44.862Z,6.90
2018-07-30T22:13:16.124Z,6.30
2018-07-30T22:15:46.869Z,6.40
2018-07-30T22:18:18.608Z,6.57
2018-07-30T22:20:49.770Z,6.13
2018-07-30T22:23:21.705Z,7.80
2018-07-30T22:25:52.685Z,11.10
2018-07-30T22:28:23.556Z,11.57
2018-07-30T22:30:54.471Z,9.87
2018-07-30T22:33:25.413Z,6.47
2018-07-30T22:35:56.458Z,7.00
2018-07-30T22:38:27.081Z,7.00
2018-07-30T22:40:57.982Z,8.93
2018-07-30T22:43:29.374Z,8.37
2018-07-30T22:46:00.009Z,6.43
2018-07-30T22:48:30.724Z,7.10
2018-07-30T22:51:01.369Z,8.83
2018-07-30T22:53:32.100Z,9.77
2018-07-30T22:56:03.355Z,10.70
2018-07-30T22:58:34.993Z,9.57
2018-07-30T23:01:06.709Z,8.53
2018-07-30T23:03:37.543Z,8.20
2018-07-30T23:06:08.177Z,8.50
2018-07-30T23:08:38.851Z,8.20
2018-07-30T23:11:09.666Z,6.90
2018-07-30T23:13:40.312Z,6.97
2018-07-30T23:16:11.029Z,6.90
2018-07-30T23:18:41.723Z,6.73
2018-07-30T23:21:12.436Z,8.77
2018-07-30T23:23:43.167Z,8.53
2018-07-30T23:26:13.837Z,7.03
2018-07-30T23:28:44.928Z,7.20
2018-07-30T23:31:15.552Z,7.83
2018-07-30T23:33:46.877Z,7.37
2018-07-30T23:36:18.638Z,9.37
2018-07-30T23:38:49.450Z,9.13
2018-07-30T23:41:20.931Z,8.90
2018-07-30T23:43:52.093Z,7.27
2018-07-30T23:46:22.675Z,7.70
2018-07-30T23:48:53.415Z,10.70
2018-07-30T23:51:23.983Z,8.80
2018-07-30T23:53:54.632Z,9.60
2018-07-30T23:56:25.533Z,9.23
2018-07-30T23:58:56.159Z,9.70
